Time;durP1;ratioP1;P1;durP2;ratioP2;P2;SDS_P1;SDS_P2;PMS_P1;PMS_P2;Temp;Humidity;BMP_temperature;BMP_pressure;BME280_temperature;BME280_humidity;BME280_pressure;Samples;Min_cycle;Max_cycle;Signal;HPM_P1;HPM_P2
2021/12/02 00:00:21;;;;;;;10.90;6.33;;;6.90;99.90;;;;;;4995175;28;20472;-74
2021/12/02 00:02:47;;;;;;;11.47;5.97;;;6.90;99.90;;;;;;4995601;28;20452;-74
2021/12/02 00:05:14;;;;;;;6.00;5.33;;;6.90;99.90;;;;;;4996687;28;20436;-73
2021/12/02 00:07:41;;;;;;;12.30;6.10;;;6.90;99.90;;;;;;4995283;28;20973;-73
2021/12/02 00:10:09;;;;;;;10.40;6.03;;;6.90;99.90;;;;;;4994953;28;20490;-73
2021/12/02 00:12:36;;;;;;;11.83;5.60;;;6.90;99.90;;;;;;4995774;28;20452;-73
2021/12/02 00:15:07;;;;;;;11.80;6.20;;;6.90;99.90;;;;;;4995247;28;20444;-73
2021/12/02 00:17:38;;;;;;;11.60;4.90;;;6.90;99.90;;;;;;4997973;28;20982;-73
2021/12/02 00:23:26;;;;;;;10.47;7.00;;;6.90;99.90;;;;;;4994504;28;20488;-73
2021/12/02 00:25:55;;;;;;;10.23;5.43;;;6.90;99.90;;;;;;4994682;28;20539;-73
2021/12/02 00:28:23;;;;;;;9.53;5.53;;;6.90;99.90;;;;;;4994182;28;21024;-73
2021/12/02 00:30:50;;;;;;;9.50;5.37;;;6.90;99.90;;;;;;4994581;28;20479;-73
2021/12/02 00:33:17;;;;;;;8.73;5.30;;;6.90;99.90;;;;;;4994475;28;20444;-73
2021/12/02 00:35:44;;;;;;;10.00;5.30;;;6.90;99.90;;;;;;4994591;28;20447;-73
2021/12/02 00:38:12;;;;;;;9.93;6.00;;;6.90;99.90;;;;;;4994493;28;20452;-73
2021/12/02 00:40:39;;;;;;;7.53;5.63;;;6.90;99.90;;;;;;4994328;28;20497;-73
2021/12/02 00:43:07;;;;;;;11.30;5.70;;;6.90;99.90;;;;;;4994521;28;20452;-73
2021/12/02 00:45:34;;;;;;;8.20;5.90;;;6.90;99.90;;;;;;4994359;28;20451;-73
2021/12/02 00:48:01;;;;;;;10.43;6.90;;;6.80;99.90;;;;;;4994284;28;20496;-73
2021/12/02 00:50:28;;;;;;;9.20;5.90;;;6.90;99.90;;;;;;4994456;28;20477;-73
2021/12/02 00:52:56;;;;;;;8.30;6.20;;;6.90;99.90;;;;;;4994264;28;20463;-73
2021/12/02 00:55:26;;;;;;;10.87;6.33;;;6.90;99.90;;;;;;4994510;28;20448;-73
2021/12/02 00:57:54;;;;;;;10.63;5.80;;;6.90;99.90;;;;;;4995973;28;20467;-73
2021/12/02 01:00:22;;;;;;;9.53;6.83;;;6.90;99.90;;;;;;4996205;28;20468;-73
2021/12/02 01:02:50;;;;;;;11.63;6.50;;;6.90;99.90;;;;;;4994020;28;20456;-73
2021/12/02 01:05:19;;;;;;;11.10;6.20;;;6.90;99.90;;;;;;4994354;28;20432;-73
2021/12/02 01:07:46;;;;;;;11.20;7.03;;;6.80;99.90;;;;;;4994366;28;20496;-73
2021/12/02 01:10:12;;;;;;;10.57;6.37;;;6.80;99.90;;;;;;4994521;28;20484;-73
2021/12/02 01:12:39;;;;;;;11.40;7.27;;;6.80;99.90;;;;;;4994184;28;20454;-73
2021/12/02 01:15:08;;;;;;;11.37;6.67;;;6.80;99.90;;;;;;4993973;28;20456;-73
2021/12/02 01:17:36;;;;;;;14.33;6.60;;;6.70;99.90;;;;;;4994225;28;20519;-73
2021/12/02 01:20:03;;;;;;;14.93;7.90;;;6.70;99.90;;;;;;4994136;28;20476;-73
2021/12/02 01:22:33;;;;;;;15.23;8.30;;;6.70;99.90;;;;;;4994283;28;20445;-73
2021/12/02 01:25:01;;;;;;;8.07;6.23;;;6.70;99.90;;;;;;4994137;28;20527;-74
2021/12/02 01:27:28;;;;;;;12.93;6.73;;;6.80;99.90;;;;;;4994056;28;20484;-74
2021/12/02 01:29:56;;;;;;;9.97;7.00;;;6.80;99.90;;;;;;4994001;28;20503;-73
2021/12/02 01:32:24;;;;;;;11.30;7.73;;;6.80;99.90;;;;;;4993847;28;20448;-73
2021/12/02 01:34:53;;;;;;;11.83;7.17;;;6.80;99.90;;;;;;4993622;28;20984;-73
2021/12/02 01:37:20;;;;;;;14.37;8.07;;;6.80;99.90;;;;;;4993985;28;20447;-73
2021/12/02 01:39:50;;;;;;;15.03;8.93;;;6.80;99.90;;;;;;4993553;28;20959;-73
2021/12/02 01:42:24;;;;;;;11.10;8.30;;;6.80;99.90;;;;;;4993974;28;20858;-74
2021/12/02 01:44:52;;;;;;;11.87;8.20;;;6.80;99.90;;;;;;4993921;28;20910;-74
2021/12/02 01:47:23;;;;;;;11.17;8.13;;;6.80;99.90;;;;;;4993477;28;20986;-73
2021/12/02 01:49:55;;;;;;;14.27;8.37;;;6.80;99.90;;;;;;4993952;28;20524;-73
2021/12/02 01:52:27;;;;;;;17.93;9.30;;;6.80;99.90;;;;;;4993880;28;20447;-73
2021/12/02 01:55:03;;;;;;;13.00;9.53;;;6.70;99.90;;;;;;4993813;28;20437;-73
2021/12/02 01:57:32;;;;;;;15.60;10.00;;;6.70;99.90;;;;;;4993881;28;20432;-73
2021/12/02 02:00:07;;;;;;;15.93;10.50;;;6.60;99.90;;;;;;4993281;28;20475;-73
2021/12/02 02:02:38;;;;;;;18.93;10.57;;;6.60;99.90;;;;;;4993775;28;20443;-73
2021/12/02 02:05:11;;;;;;;16.73;9.77;;;6.70;99.90;;;;;;4993628;28;20437;-73
2021/12/02 02:07:42;;;;;;;20.50;10.30;;;6.70;99.90;;;;;;4993345;28;20986;-73
2021/12/02 02:10:11;;;;;;;18.13;9.87;;;6.70;99.90;;;;;;4993471;28;20483;-73
2021/12/02 02:12:37;;;;;;;12.70;9.50;;;6.60;99.90;;;;;;4993667;28;20454;-73
2021/12/02 02:15:05;;;;;;;19.40;9.20;;;6.60;99.90;;;;;;4994591;28;20448;-73
2021/12/02 02:17:37;;;;;;;13.83;8.50;;;6.60;99.90;;;;;;4997019;28;20429;-73
2021/12/02 02:20:08;;;;;;;14.80;8.83;;;6.60;99.90;;;;;;4997216;28;20472;-73
2021/12/02 02:22:36;;;;;;;12.33;8.67;;;6.60;99.90;;;;;;4997397;28;20437;-73
2021/12/02 02:25:10;;;;;;;10.20;7.90;;;6.60;99.90;;;;;;4997124;28;20458;-73
2021/12/02 02:27:37;;;;;;;15.77;8.00;;;6.70;99.90;;;;;;4997579;28;20986;-73
2021/12/02 02:30:08;;;;;;;13.47;8.13;;;6.60;99.90;;;;;;4998331;28;20476;-73
2021/12/02 02:32:34;;;;;;;13.23;8.83;;;6.60;99.90;;;;;;4997969;28;20447;-73
2021/12/02 02:35:01;;;;;;;14.07;9.50;;;6.50;99.90;;;;;;4996824;28;20935;-73
2021/12/02 02:37:32;;;;;;;14.53;8.93;;;6.50;99.90;;;;;;4996858;28;20448;-73
2021/12/02 02:40:01;;;;;;;15.37;8.53;;;6.50;99.90;;;;;;4996827;28;20514;-74
2021/12/02 02:42:28;;;;;;;11.17;7.83;;;6.50;99.90;;;;;;4996706;28;20448;-73
2021/12/02 02:44:55;;;;;;;12.63;7.90;;;6.40;99.90;;;;;;4996747;28;20456;-73
2021/12/02 02:47:25;;;;;;;9.93;7.40;;;6.40;99.90;;;;;;4996243;28;21057;-73
2021/12/02 02:49:52;;;;;;;9.00;7.60;;;6.40;99.90;;;;;;4996665;28;20537;-73
2021/12/02 02:52:19;;;;;;;10.93;8.30;;;6.40;99.90;;;;;;4996498;28;20448;-73
2021/12/02 02:54:46;;;;;;;12.30;9.43;;;6.50;99.90;;;;;;4996472;28;20460;-73
2021/12/02 02:57:17;;;;;;;11.50;9.73;;;6.50;99.90;;;;;;4996494;28;20448;-73
2021/12/02 02:59:58;;;;;;;13.37;10.73;;;6.50;99.90;;;;;;4996402;28;20448;-73
2021/12/02 03:02:30;;;;;;;13.20;10.07;;;6.50;99.90;;;;;;4996753;28;20436;-73
2021/12/02 03:05:01;;;;;;;16.93;11.40;;;6.40;99.90;;;;;;4996111;28;20899;-73
2021/12/02 03:07:34;;;;;;;12.97;9.70;;;6.40;99.90;;;;;;4996408;28;20555;-73
2021/12/02 03:10:10;;;;;;;14.40;9.60;;;6.40;99.90;;;;;;4995947;28;20499;-73
2021/12/02 03:12:41;;;;;;;15.30;8.80;;;6.40;99.90;;;;;;4996352;28;20447;-73
2021/12/02 03:17:54;;;;;;;13.90;7.93;;;6.40;99.90;;;;;;4979072;28;20431;-73
2021/12/02 03:20:21;;;;;;;11.97;7.13;;;6.40;99.90;;;;;;4995960;28;20468;-73
2021/12/02 03:22:48;;;;;;;10.03;6.13;;;6.30;99.90;;;;;;4995678;28;20440;-73
2021/12/02 03:25:15;;;;;;;13.27;6.87;;;6.40;99.90;;;;;;4995912;28;20480;-73
2021/12/02 03:27:43;;;;;;;10.47;6.60;;;6.40;99.90;;;;;;4995171;28;20480;-73
2021/12/02 03:30:10;;;;;;;9.07;5.57;;;6.30;99.90;;;;;;4995951;28;20832;-73
2021/12/02 03:32:37;;;;;;;13.30;5.43;;;6.40;99.90;;;;;;4995794;28;20459;-73
2021/12/02 03:35:06;;;;;;;7.80;4.77;;;6.30;99.90;;;;;;4995619;28;20463;-73
2021/12/02 03:37:33;;;;;;;6.77;4.80;;;6.30;99.90;;;;;;4995764;28;20452;-73
2021/12/02 03:40:00;;;;;;;7.53;5.00;;;6.20;99.90;;;;;;4995345;28;20986;-73
2021/12/02 03:42:26;;;;;;;8.13;3.10;;;6.20;99.90;;;;;;4995696;28;20520;-73
2021/12/02 03:44:55;;;;;;;4.23;2.60;;;6.20;99.90;;;;;;4995627;28;20459;-73
2021/12/02 03:47:22;;;;;;;3.60;2.60;;;6.20;99.90;;;;;;4995505;28;20460;-73
2021/12/02 03:49:48;;;;;;;6.27;3.17;;;6.10;99.90;;;;;;4995422;28;20457;-73
2021/12/02 03:52:15;;;;;;;6.53;2.87;;;6.10;99.90;;;;;;4995557;28;20449;-73
2021/12/02 03:54:42;;;;;;;3.07;2.40;;;6.10;99.90;;;;;;4995682;28;20448;-73
2021/12/02 03:57:08;;;;;;;5.40;3.00;;;6.10;99.90;;;;;;4995430;28;20453;-73
2021/12/02 03:59:35;;;;;;;10.70;2.27;;;6.10;99.90;;;;;;4995221;28;20456;-73
2021/12/02 04:02:04;;;;;;;2.57;1.87;;;6.10;99.90;;;;;;4995351;28;20456;-73
2021/12/02 04:04:30;;;;;;;9.47;2.07;;;6.10;99.90;;;;;;4995288;28;20456;-73
2021/12/02 04:06:57;;;;;;;7.13;2.50;;;6.00;99.90;;;;;;4995206;28;20436;-73
2021/12/02 04:09:26;;;;;;;5.67;2.27;;;6.10;99.90;;;;;;4994770;28;20484;-73
2021/12/02 04:11:58;;;;;;;8.53;3.90;;;6.00;99.90;;;;;;4994951;28;20484;-73
2021/12/02 04:14:28;;;;;;;7.33;4.63;;;6.00;99.90;;;;;;4995174;28;20770;-73
2021/12/02 04:16:58;;;;;;;8.17;4.60;;;6.00;99.90;;;;;;4994889;28;20519;-73
2021/12/02 04:19:26;;;;;;;7.90;6.10;;;6.10;99.90;;;;;;4994990;28;20448;-73
2021/12/02 04:21:54;;;;;;;10.93;6.40;;;6.10;99.90;;;;;;4994844;28;20476;-73
2021/12/02 04:24:22;;;;;;;10.53;8.17;;;6.20;99.90;;;;;;4994921;28;20580;-73
2021/12/02 04:26:49;;;;;;;9.70;6.83;;;6.20;99.90;;;;;;4994788;28;20444;-73
2021/12/02 04:29:16;;;;;;;9.37;7.90;;;6.20;99.90;;;;;;4994717;28;20511;-73
2021/12/02 04:31:44;;;;;;;13.80;8.47;;;6.10;99.90;;;;;;4994596;28;20477;-73
2021/12/02 04:34:11;;;;;;;12.33;8.57;;;6.00;99.90;;;;;;4994728;28;20451;-73
2021/12/02 04:36:39;;;;;;;13.77;8.73;;;6.00;99.90;;;;;;4994227;28;20977;-73
2021/12/02 04:39:07;;;;;;;11.70;7.07;;;6.00;99.90;;;;;;4993674;28;20455;-73
2021/12/02 04:41:34;;;;;;;12.23;7.00;;;6.00;99.90;;;;;;4994493;28;20478;-73
2021/12/02 04:44:01;;;;;;;10.07;6.33;;;6.00;99.90;;;;;;4994615;28;20923;-73
2021/12/02 04:46:28;;;;;;;8.20;6.30;;;6.00;99.90;;;;;;4994535;28;20444;-73
2021/12/02 04:48:55;;;;;;;6.57;5.20;;;5.90;99.90;;;;;;4994331;28;20480;-73
2021/12/02 04:51:21;;;;;;;6.63;5.73;;;5.90;99.90;;;;;;4994528;28;20479;-73
2021/12/02 04:53:50;;;;;;;9.83;5.63;;;5.80;99.90;;;;;;4994392;28;20443;-73
2021/12/02 04:56:16;;;;;;;6.60;4.60;;;5.80;99.90;;;;;;4994341;28;20444;-73
2021/12/02 04:58:43;;;;;;;7.60;4.20;;;5.80;99.90;;;;;;4994434;28;20448;-73
2021/12/02 05:01:10;;;;;;;6.83;4.37;;;5.80;99.90;;;;;;4994378;28;20464;-73
2021/12/02 05:03:37;;;;;;;9.83;3.93;;;5.80;99.90;;;;;;4994628;28;20448;-73
2021/12/02 05:06:03;;;;;;;6.50;3.30;;;5.80;99.90;;;;;;4994895;28;20452;-74
2021/12/02 05:08:30;;;;;;;6.27;3.50;;;5.70;99.90;;;;;;4994596;28;20484;-75
2021/12/02 05:10:58;;;;;;;5.63;3.00;;;5.70;99.90;;;;;;4994784;28;20546;-73
2021/12/02 05:13:25;;;;;;;6.30;3.30;;;5.70;99.90;;;;;;4995548;28;20444;-73
2021/12/02 05:15:52;;;;;;;7.90;3.40;;;5.60;99.90;;;;;;4995126;28;20449;-73
2021/12/02 05:18:18;;;;;;;4.40;2.90;;;5.60;99.90;;;;;;4994514;28;20847;-73
2021/12/02 05:20:47;;;;;;;7.00;3.50;;;5.60;99.90;;;;;;4994115;28;20555;-73
2021/12/02 05:23:13;;;;;;;4.00;2.77;;;5.60;99.90;;;;;;4994121;28;20448;-73
2021/12/02 05:25:43;;;;;;;10.13;2.70;;;5.60;99.90;;;;;;4993997;28;20463;-73
2021/12/02 05:28:12;;;;;;;12.97;3.87;;;5.60;99.90;;;;;;4993938;28;20488;-74
2021/12/02 05:30:38;;;;;;;18.60;3.60;;;5.60;99.90;;;;;;4993612;28;20468;-75
2021/12/02 05:33:05;;;;;;;7.30;3.50;;;5.60;99.90;;;;;;4993742;28;20448;-75
2021/12/02 05:35:32;;;;;;;5.60;3.60;;;5.50;99.90;;;;;;4993934;28;20502;-74
2021/12/02 05:37:59;;;;;;;5.10;3.10;;;5.50;99.90;;;;;;4993984;28;20447;-74
2021/12/02 05:40:25;;;;;;;5.00;3.27;;;5.40;99.90;;;;;;4993768;28;20469;-75
2021/12/02 05:42:52;;;;;;;6.50;3.90;;;5.30;99.90;;;;;;4993862;28;20456;-75
2021/12/02 05:45:20;;;;;;;7.50;3.30;;;5.30;99.90;;;;;;4993840;28;20456;-75
2021/12/02 05:47:47;;;;;;;5.10;2.50;;;5.30;99.90;;;;;;4993812;28;20452;-75
2021/12/02 05:50:14;;;;;;;5.60;2.50;;;5.30;99.90;;;;;;4995223;28;20483;-75
2021/12/02 05:52:40;;;;;;;3.10;2.20;;;5.40;99.90;;;;;;4998185;28;20464;-74
2021/12/02 05:55:08;;;;;;;3.00;2.03;;;5.30;99.90;;;;;;4997509;28;20448;-75
2021/12/02 05:57:35;;;;;;;4.97;2.37;;;5.30;99.90;;;;;;4997705;28;20949;-75
2021/12/02 06:00:02;;;;;;;4.53;2.30;;;5.30;99.90;;;;;;4997642;28;20465;-79
2021/12/02 06:02:30;;;;;;;6.30;2.60;;;5.30;99.90;;;;;;4998781;28;20550;-78
2021/12/02 06:04:56;;;;;;;4.80;2.30;;;5.30;99.90;;;;;;4999311;28;20800;-78
2021/12/02 06:07:24;;;;;;;6.43;2.30;;;5.30;99.90;;;;;;4998781;28;20572;-79
2021/12/02 06:09:52;;;;;;;4.27;2.20;;;5.30;99.90;;;;;;4998310;28;20495;-78
2021/12/02 06:12:19;;;;;;;3.60;2.50;;;5.30;99.90;;;;;;4999094;28;20428;-78
2021/12/02 06:14:46;;;;;;;3.97;2.27;;;5.40;99.90;;;;;;4999644;28;20456;-79
2021/12/02 06:17:13;;;;;;;5.67;2.90;;;5.30;99.90;;;;;;4999715;28;20451;-79
2021/12/02 06:19:41;;;;;;;4.67;3.70;;;5.30;99.90;;;;;;4999995;28;20428;-78
2021/12/02 06:22:09;;;;;;;10.90;4.20;;;5.30;99.90;;;;;;4998327;28;20455;-77
2021/12/02 06:24:43;;;;;;;9.47;5.00;;;5.30;99.90;;;;;;4998383;28;20459;-78
2021/12/02 06:27:10;;;;;;;5.37;4.80;;;5.20;99.90;;;;;;4997933;28;20428;-77
2021/12/02 06:29:37;;;;;;;12.47;5.67;;;5.20;99.90;;;;;;4997005;28;20480;-76
2021/12/02 06:32:06;;;;;;;10.70;5.70;;;5.20;99.90;;;;;;4997801;28;20455;-78
2021/12/02 06:34:33;;;;;;;12.63;5.37;;;5.20;99.90;;;;;;4998031;28;20472;-77
2021/12/02 06:37:01;;;;;;;5.80;5.20;;;5.20;99.90;;;;;;4998112;28;20459;-76
2021/12/02 06:39:28;;;;;;;4.80;4.07;;;5.20;99.90;;;;;;5010076;28;20448;-79
2021/12/02 06:41:55;;;;;;;6.70;5.10;;;5.20;99.90;;;;;;5007155;28;20471;-78
2021/12/02 06:44:21;;;;;;;6.57;4.80;;;5.20;99.90;;;;;;5003930;28;20551;-78
2021/12/02 06:46:48;;;;;;;6.27;4.17;;;5.10;99.90;;;;;;4997135;28;20859;-77
2021/12/02 06:49:15;;;;;;;7.17;4.00;;;5.20;99.90;;;;;;4997221;28;20480;-77
2021/12/02 06:51:41;;;;;;;11.47;5.07;;;5.20;99.90;;;;;;4998159;28;20464;-79
2021/12/02 06:54:10;;;;;;;7.73;4.87;;;5.20;99.90;;;;;;4999381;28;20459;-79
2021/12/02 06:56:36;;;;;;;10.00;4.43;;;5.20;99.90;;;;;;5000050;28;20456;-79
2021/12/02 06:59:03;;;;;;;11.13;5.57;;;5.20;99.90;;;;;;5002487;28;20432;-79
2021/12/02 07:01:30;;;;;;;6.47;4.30;;;5.20;99.90;;;;;;4999699;28;20460;-78
2021/12/02 07:03:57;;;;;;;11.50;4.43;;;5.20;99.90;;;;;;4997533;28;20447;-78
2021/12/02 07:06:23;;;;;;;4.63;3.83;;;5.10;99.90;;;;;;4997054;28;20448;-77
2021/12/02 07:08:51;;;;;;;8.10;4.37;;;5.10;99.90;;;;;;4996675;28;20480;-77
2021/12/02 07:11:19;;;;;;;8.90;3.77;;;5.10;99.90;;;;;;4996708;28;20480;-78
2021/12/02 07:13:48;;;;;;;7.53;3.70;;;5.20;99.90;;;;;;4997546;28;20950;-77
2021/12/02 07:16:15;;;;;;;7.37;3.77;;;5.00;99.90;;;;;;4997185;28;20452;-78
2021/12/02 07:18:47;;;;;;;5.37;3.27;;;5.10;99.90;;;;;;4996548;28;20935;-77
2021/12/02 07:21:14;;;;;;;4.07;2.70;;;5.10;99.90;;;;;;4996399;28;20948;-77
2021/12/02 07:23:40;;;;;;;5.50;2.57;;;5.00;99.90;;;;;;4996632;28;20456;-77
2021/12/02 07:26:07;;;;;;;4.43;2.67;;;4.90;99.90;;;;;;4996280;28;20452;-76
2021/12/02 07:28:36;;;;;;;3.50;2.70;;;5.00;99.90;;;;;;4995586;28;20942;-77
2021/12/02 07:31:05;;;;;;;4.47;2.43;;;5.00;99.90;;;;;;4996099;28;20476;-77
2021/12/02 07:33:37;;;;;;;3.73;3.30;;;5.10;99.90;;;;;;4996360;28;20447;-78
2021/12/02 07:36:04;;;;;;;4.57;3.17;;;5.00;99.90;;;;;;4996798;28;20440;-77
2021/12/02 07:38:31;;;;;;;3.67;3.33;;;5.00;99.90;;;;;;4995753;28;20542;-78
2021/12/02 07:41:02;;;;;;;4.83;3.30;;;5.00;99.90;;;;;;4996182;28;20495;-79
2021/12/02 07:43:30;;;;;;;6.87;3.57;;;5.00;99.90;;;;;;4996832;28;20910;-77
2021/12/02 07:45:59;;;;;;;3.90;3.13;;;5.00;99.90;;;;;;4995992;28;20452;-77
2021/12/02 07:48:27;;;;;;;3.37;3.07;;;5.00;99.90;;;;;;4995709;28;20472;-77
2021/12/02 07:50:55;;;;;;;4.27;3.00;;;5.00;99.90;;;;;;4995646;28;20495;-78
2021/12/02 07:53:24;;;;;;;5.10;3.30;;;5.00;99.90;;;;;;4996952;28;20440;-77
2021/12/02 07:55:52;;;;;;;6.10;2.50;;;5.00;99.90;;;;;;4996674;28;20785;-77
2021/12/02 07:58:23;;;;;;;3.23;2.90;;;5.00;99.90;;;;;;4995977;28;20412;-76
2021/12/02 08:00:51;;;;;;;7.87;3.83;;;5.00;99.90;;;;;;4996650;28;20469;-76
2021/12/02 08:03:19;;;;;;;3.37;3.07;;;5.00;99.90;;;;;;4996537;28;20452;-76
2021/12/02 08:05:46;;;;;;;3.40;3.10;;;5.00;99.90;;;;;;4996078;28;20456;-78
2021/12/02 08:08:13;;;;;;;5.93;3.30;;;5.00;99.90;;;;;;4996009;28;20452;-78
2021/12/02 08:10:40;;;;;;;3.67;3.37;;;5.10;99.90;;;;;;4995197;28;20520;-76
2021/12/02 08:13:07;;;;;;;4.47;4.17;;;5.10;99.90;;;;;;4995105;28;20456;-76
2021/12/02 08:15:33;;;;;;;8.27;5.10;;;5.10;99.90;;;;;;4995214;28;20454;-78
2021/12/02 08:18:00;;;;;;;4.77;4.23;;;5.20;99.90;;;;;;4995515;28;20463;-77
2021/12/02 08:20:30;;;;;;;5.33;4.67;;;5.10;99.90;;;;;;4994874;28;20475;-77
2021/12/02 08:22:57;;;;;;;3.90;3.60;;;5.10;99.90;;;;;;4995123;28;20452;-78
2021/12/02 08:25:26;;;;;;;6.00;4.40;;;5.10;99.90;;;;;;4994721;28;20989;-77
2021/12/02 08:27:53;;;;;;;4.33;4.03;;;5.10;99.90;;;;;;4994948;28;20445;-78
2021/12/02 08:30:22;;;;;;;4.67;4.07;;;5.00;99.90;;;;;;4994794;28;20835;-77
2021/12/02 08:32:49;;;;;;;4.10;3.80;;;5.00;99.90;;;;;;4994814;28;20933;-78
2021/12/02 08:35:18;;;;;;;4.23;3.87;;;4.90;99.90;;;;;;4995169;28;20463;-77
2021/12/02 08:37:48;;;;;;;3.70;3.37;;;4.90;99.90;;;;;;4995026;28;20849;-77
2021/12/02 08:40:18;;;;;;;3.80;3.60;;;4.90;99.90;;;;;;4994631;28;20472;-76
2021/12/02 08:42:45;;;;;;;4.03;3.73;;;4.90;99.90;;;;;;4994687;28;20425;-77
2021/12/02 08:45:12;;;;;;;4.23;3.67;;;4.90;99.90;;;;;;4994645;28;20547;-76
2021/12/02 08:47:44;;;;;;;6.27;3.93;;;4.90;99.90;;;;;;4994265;28;20817;-77
2021/12/02 08:50:11;;;;;;;4.83;4.13;;;4.90;99.90;;;;;;4994241;28;20495;-77
2021/12/02 08:52:38;;;;;;;4.93;4.40;;;4.90;99.90;;;;;;4994632;28;20487;-76
2021/12/02 08:55:07;;;;;;;4.50;4.10;;;4.90;99.90;;;;;;4994607;28;20433;-75
2021/12/02 08:57:35;;;;;;;4.70;4.30;;;5.00;99.90;;;;;;4994430;28;20428;-75
2021/12/02 09:00:05;;;;;;;8.07;4.80;;;4.90;99.90;;;;;;4994318;28;20464;-75
2021/12/02 09:02:32;;;;;;;6.53;5.27;;;5.00;99.90;;;;;;4994339;28;20815;-75
2021/12/02 09:04:59;;;;;;;5.37;4.87;;;5.10;99.90;;;;;;4994348;28;20453;-76
2021/12/02 09:07:25;;;;;;;5.53;5.07;;;5.10;99.90;;;;;;4994340;28;20842;-76
2021/12/02 09:09:52;;;;;;;6.40;5.60;;;5.20;99.90;;;;;;4993818;28;20493;-76
2021/12/02 09:12:20;;;;;;;10.20;8.30;;;5.30;99.90;;;;;;4994020;28;20439;-76
2021/12/02 09:14:47;;;;;;;13.83;10.17;;;5.30;99.90;;;;;;4994151;28;20475;-76
2021/12/02 09:17:14;;;;;;;14.20;12.03;;;5.30;99.90;;;;;;4994299;28;20448;-76
2021/12/02 09:19:41;;;;;;;15.73;11.47;;;5.30;99.90;;;;;;4994227;28;20445;-77
2021/12/02 09:22:07;;;;;;;12.63;10.43;;;5.30;99.90;;;;;;4993875;28;20451;-77
2021/12/02 09:24:34;;;;;;;11.00;8.70;;;5.30;99.90;;;;;;4993696;28;20507;-77
2021/12/02 09:27:01;;;;;;;8.10;7.30;;;5.30;99.90;;;;;;4994309;28;20452;-75
2021/12/02 09:29:30;;;;;;;9.70;8.17;;;5.30;99.90;;;;;;4994530;28;20483;-76
2021/12/02 09:31:56;;;;;;;7.27;6.57;;;5.30;99.90;;;;;;4994159;28;20473;-77
2021/12/02 09:34:25;;;;;;;6.27;5.77;;;5.30;99.90;;;;;;4994207;28;20448;-76
2021/12/02 09:36:53;;;;;;;7.07;6.37;;;5.30;99.90;;;;;;4994189;28;20452;-77
2021/12/02 09:39:20;;;;;;;8.20;6.53;;;5.40;99.90;;;;;;4994189;28;20453;-76
2021/12/02 09:41:48;;;;;;;9.27;5.60;;;5.40;99.90;;;;;;4994892;28;20682;-77
2021/12/02 09:44:15;;;;;;;6.23;5.30;;;5.40;99.90;;;;;;4994195;28;20449;-77
2021/12/02 09:46:44;;;;;;;6.03;4.53;;;5.30;99.90;;;;;;4994017;28;20455;-76
2021/12/02 09:49:12;;;;;;;6.20;5.00;;;5.30;99.90;;;;;;4993894;28;20452;-76
2021/12/02 09:51:46;;;;;;;8.93;5.60;;;5.20;99.90;;;;;;4993809;28;20995;-77
2021/12/02 09:54:16;;;;;;;8.40;6.73;;;5.20;99.90;;;;;;4994070;28;20464;-76
2021/12/02 09:56:46;;;;;;;8.10;7.30;;;5.20;99.90;;;;;;4994258;28;20816;-75
2021/12/02 09:59:23;;;;;;;8.23;6.57;;;5.10;99.90;;;;;;4994149;28;20452;-76
2021/12/02 10:01:55;;;;;;;7.90;7.10;;;5.10;99.90;;;;;;4993752;28;20503;-76
2021/12/02 10:04:23;;;;;;;8.70;6.27;;;5.10;99.90;;;;;;4993747;28;20483;-76
2021/12/02 10:07:03;;;;;;;9.10;7.90;;;5.20;99.90;;;;;;4993707;28;20462;-75
2021/12/02 10:09:38;;;;;;;7.60;6.80;;;5.20;99.90;;;;;;4993754;28;20440;-76
2021/12/02 10:12:14;;;;;;;6.17;5.57;;;5.30;99.90;;;;;;4993725;28;20435;-76
2021/12/02 10:14:44;;;;;;;10.47;5.70;;;5.30;99.90;;;;;;4993732;28;20472;-76
2021/12/02 10:17:17;;;;;;;5.60;5.10;;;5.20;99.90;;;;;;4993704;28;20472;-76
2021/12/02 10:20:18;;;;;;;5.50;4.90;;;5.20;99.90;;;;;;4993680;28;20519;-76
2021/12/02 10:23:05;;;;;;;6.07;4.43;;;5.20;99.90;;;;;;4993767;28;20846;-76
2021/12/02 10:25:32;;;;;;;4.53;3.80;;;5.40;99.90;;;;;;4994169;28;20440;-75
2021/12/02 10:28:04;;;;;;;7.30;5.10;;;5.40;99.90;;;;;;4993545;28;20451;-77
2021/12/02 10:30:31;;;;;;;5.00;4.50;;;5.50;99.90;;;;;;4993538;28;20900;-77
2021/12/02 10:32:59;;;;;;;5.00;3.93;;;5.60;99.90;;;;;;4993569;28;20478;-75
2021/12/02 10:35:38;;;;;;;5.27;4.03;;;5.70;99.90;;;;;;4993244;28;20448;-76
2021/12/02 10:38:05;;;;;;;8.97;4.43;;;5.70;99.90;;;;;;4996409;28;20488;-76
2021/12/02 10:40:36;;;;;;;5.17;3.73;;;5.70;99.70;;;;;;4997162;28;20468;-76
2021/12/02 10:43:08;;;;;;;6.93;4.80;;;5.80;99.40;;;;;;4996737;28;20914;-76
2021/12/02 10:45:35;;;;;;;5.43;3.90;;;5.90;99.90;;;;;;4997158;28;20436;-74
2021/12/02 10:48:03;;;;;;;4.53;4.13;;;6.00;99.20;;;;;;4997802;28;20452;-75
2021/12/02 10:50:39;;;;;;;8.80;5.43;;;6.00;98.70;;;;;;4997214;28;20490;-76
2021/12/02 10:53:06;;;;;;;4.40;4.00;;;6.00;99.10;;;;;;4997223;28;20471;-76
2021/12/02 10:55:33;;;;;;;9.77;4.00;;;6.00;99.30;;;;;;4997021;28;20451;-77
2021/12/02 10:58:01;;;;;;;5.90;5.30;;;5.90;99.30;;;;;;4997029;28;20453;-78
2021/12/02 11:00:30;;;;;;;4.50;4.10;;;5.90;99.80;;;;;;4997380;28;20460;-77
2021/12/02 11:02:59;;;;;;;6.33;3.50;;;5.90;99.90;;;;;;4997139;28;20459;-76
2021/12/02 11:05:31;;;;;;;4.50;2.60;;;5.80;99.90;;;;;;4996629;28;20443;-78
2021/12/02 11:08:04;;;;;;;6.93;2.53;;;5.70;99.80;;;;;;4996723;28;20440;-78
2021/12/02 11:10:34;;;;;;;4.40;3.33;;;5.60;99.90;;;;;;4996139;28;20497;-77
2021/12/02 11:13:01;;;;;;;7.50;3.10;;;5.60;99.90;;;;;;4996660;28;20445;-77
2021/12/02 11:15:29;;;;;;;4.83;3.60;;;5.50;99.90;;;;;;4996479;28;20456;-77
2021/12/02 11:17:58;;;;;;;3.70;2.83;;;5.50;99.90;;;;;;4996315;28;20444;-77
2021/12/02 11:20:29;;;;;;;3.87;2.90;;;5.50;99.90;;;;;;4996256;28;20468;-77
2021/12/02 11:23:00;;;;;;;4.17;3.10;;;5.50;99.90;;;;;;4996319;28;20432;-76
2021/12/02 11:25:27;;;;;;;5.27;3.00;;;5.50;99.90;;;;;;4996311;28;20433;-76
2021/12/02 11:27:55;;;;;;;7.50;3.90;;;5.50;99.90;;;;;;4996079;28;20452;-76
2021/12/02 11:30:23;;;;;;;10.27;4.50;;;5.40;99.90;;;;;;4995610;28;20484;-75
2021/12/02 11:32:53;;;;;;;6.20;3.60;;;5.50;99.90;;;;;;4995973;28;20448;-76
2021/12/02 11:35:24;;;;;;;4.43;4.03;;;5.40;99.90;;;;;;4996133;28;20451;-76
2021/12/02 11:37:55;;;;;;;3.20;2.90;;;5.40;99.90;;;;;;4995942;28;20432;-76
2021/12/02 11:40:24;;;;;;;6.47;3.77;;;5.40;99.70;;;;;;4995844;28;20468;-76
2021/12/02 11:42:53;;;;;;;3.30;3.00;;;5.50;99.20;;;;;;4995693;28;20456;-76
2021/12/02 11:45:22;;;;;;;4.90;3.90;;;5.60;98.50;;;;;;4995677;28;20456;-76
2021/12/02 11:47:50;;;;;;;4.20;3.80;;;5.80;97.90;;;;;;4995254;28;20449;-76
2021/12/02 11:50:19;;;;;;;2.77;2.47;;;6.00;97.70;;;;;;4995580;28;20498;-76
2021/12/02 11:52:46;;;;;;;5.10;2.37;;;6.00;97.40;;;;;;4995248;28;20463;-77
2021/12/02 11:55:18;;;;;;;4.93;3.50;;;6.00;97.10;;;;;;4995705;28;20439;-77
2021/12/02 11:57:45;;;;;;;5.60;3.47;;;5.90;97.10;;;;;;4995612;28;20857;-77
2021/12/02 12:00:14;;;;;;;4.77;3.87;;;5.90;97.60;;;;;;4995643;28;20464;-77
2021/12/02 12:02:48;;;;;;;5.80;4.30;;;5.80;97.80;;;;;;4995491;28;20783;-77
2021/12/02 12:05:16;;;;;;;5.60;5.17;;;5.80;97.40;;;;;;4995724;28;20446;-77
2021/12/02 12:07:47;;;;;;;8.10;3.83;;;5.80;97.60;;;;;;4995304;28;20436;-74
2021/12/02 12:10:28;;;;;;;6.87;4.33;;;5.90;97.80;;;;;;4994810;28;20531;-74
2021/12/02 12:13:15;;;;;;;5.70;4.70;;;5.90;97.60;;;;;;4996005;28;20443;-76
2021/12/02 12:15:44;;;;;;;4.93;4.43;;;5.90;97.80;;;;;;4995306;28;20433;-74
2021/12/02 12:18:18;;;;;;;6.63;4.80;;;5.90;97.70;;;;;;4995296;28;20455;-75
2021/12/02 12:21:00;;;;;;;4.93;3.87;;;5.90;97.50;;;;;;4995139;28;20460;-75
2021/12/02 12:23:40;;;;;;;5.30;3.80;;;5.90;97.50;;;;;;4995140;28;20442;-76
2021/12/02 12:26:30;;;;;;;3.07;2.73;;;6.20;97.60;;;;;;4995005;28;20495;-75
2021/12/02 12:29:18;;;;;;;4.87;3.07;;;6.20;96.60;;;;;;4994758;28;20960;-77
2021/12/02 12:35:09;;;;;;;6.30;2.73;;;6.20;96.50;;;;;;4986166;28;20425;-76
2021/12/02 12:37:55;;;;;;;4.00;2.80;;;6.20;96.70;;;;;;4995803;28;20444;-76
2021/12/02 12:40:27;;;;;;;4.80;2.80;;;6.40;96.20;;;;;;4995260;28;20555;-77
2021/12/02 12:43:23;;;;;;;3.13;2.83;;;6.40;96.40;;;;;;4994547;28;20483;-76
2021/12/02 12:46:04;;;;;;;7.70;3.30;;;6.30;96.40;;;;;;4994561;28;20459;-76
2021/12/02 12:48:32;;;;;;;5.83;3.30;;;6.30;96.70;;;;;;4994332;28;20833;-75
2021/12/02 12:51:15;;;;;;;3.07;2.87;;;6.20;96.50;;;;;;4993911;28;20503;-75
2021/12/02 12:53:44;;;;;;;3.63;3.17;;;6.10;96.50;;;;;;4994516;28;20448;-76
2021/12/02 12:56:13;;;;;;;4.23;3.93;;;6.00;96.50;;;;;;4994394;28;20546;-76
2021/12/02 12:59:08;;;;;;;4.57;4.10;;;5.90;96.80;;;;;;4994113;28;20444;-75
2021/12/02 13:01:36;;;;;;;5.33;4.30;;;5.80;97.40;;;;;;4994165;28;20468;-77
2021/12/02 13:04:23;;;;;;;14.97;6.20;;;5.80;98.00;;;;;;4994609;28;20827;-78
2021/12/02 13:07:02;;;;;;;7.23;4.50;;;5.70;98.60;;;;;;4994122;28;20523;-77
2021/12/02 13:09:41;;;;;;;5.70;4.87;;;5.80;99.20;;;;;;4994241;28;20431;-77
2021/12/02 13:12:10;;;;;;;6.33;4.23;;;5.80;99.20;;;;;;4994440;28;20873;-76